Time;durP1;ratioP1;P1;durP2;ratioP2;P2;SDS_P1;SDS_P2;PMS_P1;PMS_P2;Temp;Humidity;BMP_temperature;BMP_pressure;BME280_temperature;BME280_humidity;BME280_pressure;Samples;Min_cycle;Max_cycle;Signal;HPM_P1;HPM_P2
2022/03/27 00:01:19;;;;;;;16.57;12.63;;;;;;;;;;4977840;28;20255;-86
2022/03/27 00:03:45;;;;;;;15.53;12.40;;;;;;;;;;4979988;28;20298;-86
2022/03/27 00:06:11;;;;;;;16.07;12.63;;;;;;;;;;4964105;28;20193;-85
2022/03/27 00:08:37;;;;;;;15.47;12.53;;;;;;;;;;4992777;28;20563;-86
2022/03/27 00:11:24;;;;;;;13.40;12.00;;;;;;;;;;4978084;28;20187;-85
2022/03/27 00:13:50;;;;;;;14.47;11.93;;;;;;;;;;4964120;28;20182;-83
2022/03/27 00:16:16;;;;;;;14.70;12.23;;;;;;;;;;4978722;28;20316;-86
2022/03/27 00:18:42;;;;;;;14.53;12.37;;;;;;;;;;4971695;28;20358;-85
2022/03/27 00:21:09;;;;;;;14.50;11.87;;;;;;;;;;4957857;28;20254;-87
2022/03/27 00:23:35;;;;;;;15.03;12.60;;;;;;;;;;4973149;28;20190;-87
2022/03/27 00:26:01;;;;;;;13.57;11.63;;;;;;;;;;4945411;28;20273;-83
2022/03/27 00:28:31;;;;;;;14.40;11.20;;;;;;;;;;4950165;28;20186;-85
2022/03/27 00:30:58;;;;;;;18.00;12.87;;;;;;;;;;4968227;28;20268;-86
2022/03/27 00:33:24;;;;;;;16.37;12.20;;;;;;;;;;4977567;28;20178;-85
2022/03/27 00:35:50;;;;;;;15.10;12.60;;;;;;;;;;4968649;28;20194;-87
2022/03/27 00:38:17;;;;;;;14.70;12.53;;;;;;;;;;4964581;28;20265;-86
2022/03/27 00:40:43;;;;;;;17.80;12.83;;;;;;;;;;4956017;28;21187;-84
2022/03/27 00:43:10;;;;;;;17.17;12.13;;;;;;;;;;4972822;28;20205;-85
2022/03/27 00:45:36;;;;;;;17.13;12.37;;;;;;;;;;4973294;28;20690;-86
2022/03/27 00:48:03;;;;;;;15.17;12.57;;;;;;;;;;4969508;28;20190;-85
2022/03/27 00:50:30;;;;;;;17.17;12.50;;;;;;;;;;4980768;28;20225;-87
2022/03/27 00:52:56;;;;;;;14.30;12.17;;;;;;;;;;4968095;28;20190;-84
2022/03/27 00:55:22;;;;;;;15.00;11.93;;;;;;;;;;4970179;28;20627;-83
2022/03/27 00:57:48;;;;;;;13.93;12.03;;;;;;;;;;4981022;28;20317;-87
2022/03/27 01:00:19;;;;;;;15.97;12.27;;;;;;;;;;4973004;28;20191;-84
2022/03/27 01:02:45;;;;;;;15.67;12.40;;;;;;;;;;4979165;28;20182;-87
2022/03/27 01:05:13;;;;;;;15.50;12.10;;;;;;;;;;4971957;28;20186;-87
2022/03/27 01:07:40;;;;;;;14.07;11.80;;;;;;;;;;4964499;28;20217;-86
2022/03/27 01:10:06;;;;;;;17.80;11.77;;;;;;;;;;4977954;28;20219;-86
2022/03/27 01:12:39;;;;;;;14.40;11.83;;;;;;;;;;4977333;28;20186;-87
2022/03/27 01:15:06;;;;;;;16.00;11.80;;;;;;;;;;4975959;28;20299;-85
2022/03/27 01:17:32;;;;;;;15.13;12.03;;;;;;;;;;4972838;28;20190;-86
2022/03/27 01:19:58;;;;;;;16.10;11.77;;;;;;;;;;4967572;28;20195;-86
2022/03/27 01:22:24;;;;;;;14.07;11.20;;;;;;;;;;4975658;28;20297;-86
2022/03/27 01:24:51;;;;;;;13.57;11.80;;;;;;;;;;4962182;28;20198;-87
2022/03/27 01:27:17;;;;;;;14.83;11.73;;;;;;;;;;4975450;28;20214;-86
2022/03/27 01:29:43;;;;;;;15.40;11.60;;;;;;;;;;4956685;28;20213;-86
2022/03/27 01:32:11;;;;;;;16.03;12.07;;;;;;;;;;4975589;28;20196;-87
2022/03/27 01:34:37;;;;;;;14.23;11.70;;;;;;;;;;4951531;28;20191;-87
2022/03/27 01:37:10;;;;;;;14.07;11.63;;;;;;;;;;4975641;28;20213;-86
2022/03/27 01:39:36;;;;;;;13.73;10.87;;;;;;;;;;4955161;28;20194;-85
2022/03/27 01:42:03;;;;;;;14.53;11.20;;;;;;;;;;4954768;28;20209;-87
2022/03/27 01:44:29;;;;;;;17.53;11.60;;;;;;;;;;4974471;28;20660;-87
2022/03/27 01:46:56;;;;;;;14.93;10.93;;;;;;;;;;4958587;28;20190;-87
2022/03/27 01:49:22;;;;;;;12.70;10.60;;;;;;;;;;4974487;28;20356;-85
2022/03/27 01:51:48;;;;;;;13.50;11.23;;;;;;;;;;4959002;28;20194;-87
2022/03/27 01:54:14;;;;;;;13.80;10.93;;;;;;;;;;4972813;28;20647;-87
2022/03/27 01:56:41;;;;;;;13.43;11.20;;;;;;;;;;4972408;28;20191;-87
2022/03/27 01:59:07;;;;;;;14.07;10.90;;;;;;;;;;4968941;28;20194;-87
2022/03/27 02:01:34;;;;;;;15.73;11.53;;;;;;;;;;4973692;28;21168;-87
2022/03/27 02:04:00;;;;;;;14.37;11.43;;;;;;;;;;4961846;28;20265;-87
2022/03/27 02:06:26;;;;;;;13.77;10.77;;;;;;;;;;4955599;28;21976;-88
2022/03/27 02:08:52;;;;;;;12.87;11.17;;;;;;;;;;4971666;28;20190;-86
2022/03/27 02:11:19;;;;;;;13.73;10.47;;;;;;;;;;4981620;28;20194;-85
2022/03/27 02:13:45;;;;;;;12.83;10.20;;;;;;;;;;4983449;28;20191;-87
2022/03/27 02:16:10;;;;;;;12.23;10.57;;;;;;;;;;4963223;28;20197;-87
2022/03/27 02:18:36;;;;;;;13.53;11.10;;;;;;;;;;4975207;28;20187;-87
2022/03/27 02:21:03;;;;;;;12.30;10.60;;;;;;;;;;4978024;28;20202;-87
2022/03/27 02:23:29;;;;;;;14.60;10.40;;;;;;;;;;4983564;28;20187;-86
2022/03/27 02:25:55;;;;;;;13.00;10.03;;;;;;;;;;4962979;28;20244;-86
2022/03/27 02:28:21;;;;;;;12.10;10.40;;;;;;;;;;4975819;28;20630;-88
2022/03/27 02:30:48;;;;;;;16.23;9.80;;;;;;;;;;4983156;28;20240;-86
2022/03/27 02:33:14;;;;;;;13.17;11.20;;;;;;;;;;4974123;28;20209;-87
2022/03/27 02:35:40;;;;;;;13.83;10.60;;;;;;;;;;4992268;28;20241;-87
2022/03/27 02:38:06;;;;;;;13.07;9.90;;;;;;;;;;4979201;28;20670;-88
2022/03/27 02:40:33;;;;;;;13.07;10.57;;;;;;;;;;4956437;28;20187;-85
2022/03/27 02:43:01;;;;;;;12.77;9.73;;;;;;;;;;4960887;28;20186;-86
2022/03/27 02:45:28;;;;;;;11.03;9.83;;;;;;;;;;4956430;28;20221;-87
2022/03/27 02:47:54;;;;;;;11.43;9.60;;;;;;;;;;4974595;28;20206;-87
2022/03/27 02:50:20;;;;;;;12.37;9.87;;;;;;;;;;4963434;28;20240;-85
2022/03/27 02:52:46;;;;;;;13.67;10.10;;;;;;;;;;4978883;28;20190;-86
2022/03/27 02:55:12;;;;;;;14.27;9.80;;;;;;;;;;4958222;28;20759;-86
2022/03/27 02:57:38;;;;;;;11.87;9.70;;;;;;;;;;4978602;28;20194;-87
2022/03/27 03:00:06;;;;;;;13.23;9.80;;;;;;;;;;4957277;28;20206;-86
2022/03/27 03:02:32;;;;;;;14.10;9.77;;;;;;;;;;4953929;28;20198;-87
2022/03/27 03:04:58;;;;;;;15.13;10.53;;;;;;;;;;4982528;28;20194;-88
2022/03/27 03:07:24;;;;;;;13.30;9.37;;;;;;;;;;4971765;28;20236;-87
2022/03/27 03:09:51;;;;;;;13.70;10.07;;;;;;;;;;4971826;28;20215;-88
2022/03/27 03:12:17;;;;;;;12.63;9.10;;;;;;;;;;4961263;28;20191;-85
2022/03/27 03:14:43;;;;;;;13.83;9.73;;;;;;;;;;4961676;28;20210;-87
2022/03/27 03:17:09;;;;;;;10.97;9.40;;;;;;;;;;4961144;28;20178;-85
2022/03/27 03:19:35;;;;;;;13.03;9.97;;;;;;;;;;4958873;28;20206;-88
2022/03/27 03:22:01;;;;;;;10.73;9.17;;;;;;;;;;4975899;28;20205;-86
2022/03/27 03:24:27;;;;;;;12.90;9.30;;;;;;;;;;4977128;28;20195;-85
2022/03/27 03:26:53;;;;;;;12.93;9.37;;;;;;;;;;4974039;28;20570;-87
2022/03/27 03:29:21;;;;;;;12.40;9.80;;;;;;;;;;4979922;28;20224;-87
2022/03/27 03:31:47;;;;;;;11.33;8.90;;;;;;;;;;4983503;28;20265;-88
2022/03/27 03:34:12;;;;;;;12.07;9.03;;;;;;;;;;4973816;28;20198;-88
2022/03/27 03:36:38;;;;;;;12.23;9.33;;;;;;;;;;4975690;28;20196;-86
2022/03/27 03:39:04;;;;;;;13.50;9.93;;;;;;;;;;4972499;28;20204;-85
2022/03/27 03:41:30;;;;;;;11.10;9.17;;;;;;;;;;4977693;28;20248;-86
2022/03/27 03:43:56;;;;;;;12.00;9.83;;;;;;;;;;4960369;28;20194;-87
2022/03/27 03:46:22;;;;;;;12.23;9.67;;;;;;;;;;4953662;28;20194;-86
2022/03/27 03:48:48;;;;;;;12.00;9.63;;;;;;;;;;4955231;28;20198;-87
2022/03/27 03:51:14;;;;;;;10.80;9.10;;;;;;;;;;4977426;28;20252;-87
2022/03/27 03:53:40;;;;;;;12.43;9.13;;;;;;;;;;4960945;28;20201;-87
2022/03/27 03:56:06;;;;;;;12.07;9.50;;;;;;;;;;4951304;28;20195;-86
2022/03/27 03:58:32;;;;;;;12.50;9.23;;;;;;;;;;4962343;28;20194;-87
2022/03/27 04:00:58;;;;;;;11.87;9.13;;;;;;;;;;4973997;28;20636;-87
2022/03/27 04:03:24;;;;;;;12.00;9.17;;;;;;;;;;4976128;28;20241;-85
2022/03/27 04:05:50;;;;;;;10.67;9.53;;;;;;;;;;4962262;28;20198;-87
2022/03/27 04:08:18;;;;;;;9.73;8.73;;;;;;;;;;4960580;28;20214;-88
2022/03/27 04:10:44;;;;;;;10.13;8.60;;;;;;;;;;4972773;28;20217;-86
2022/03/27 04:13:10;;;;;;;12.03;8.90;;;;;;;;;;4975249;28;20194;-85
2022/03/27 04:15:38;;;;;;;10.90;9.33;;;;;;;;;;4977723;28;20224;-85
2022/03/27 04:18:04;;;;;;;10.43;9.03;;;;;;;;;;4957304;28;20194;-88
2022/03/27 04:20:30;;;;;;;12.20;9.47;;;;;;;;;;4972256;28;20300;-86
2022/03/27 04:22:57;;;;;;;12.60;9.40;;;;;;;;;;4974523;28;20988;-86
2022/03/27 04:25:23;;;;;;;10.77;8.83;;;;;;;;;;4979553;28;20195;-88
2022/03/27 04:27:49;;;;;;;12.70;9.37;;;;;;;;;;4955776;28;20557;-84
2022/03/27 04:30:15;;;;;;;12.23;8.83;;;;;;;;;;4968248;28;20242;-87
2022/03/27 04:32:41;;;;;;;10.30;8.67;;;;;;;;;;4966940;28;20194;-87
2022/03/27 04:35:07;;;;;;;10.40;8.30;;;;;;;;;;4960671;28;20190;-88
2022/03/27 04:37:43;;;;;;;10.60;9.17;;;;;;;;;;4958078;28;20186;-87
2022/03/27 04:40:09;;;;;;;12.77;9.47;;;;;;;;;;4948677;28;20253;-84
2022/03/27 04:42:35;;;;;;;13.20;9.60;;;;;;;;;;4974059;28;20204;-87
2022/03/27 04:45:01;;;;;;;11.53;8.93;;;;;;;;;;4976502;28;20190;-84
2022/03/27 04:47:27;;;;;;;11.30;9.30;;;;;;;;;;4972407;28;20194;-86
2022/03/27 04:49:53;;;;;;;13.57;9.57;;;;;;;;;;4973599;28;20221;-87
2022/03/27 04:52:19;;;;;;;11.73;9.73;;;;;;;;;;4967282;28;20186;-88
2022/03/27 04:54:45;;;;;;;12.80;9.60;;;;;;;;;;4951453;28;20245;-85
2022/03/27 04:57:11;;;;;;;12.27;9.40;;;;;;;;;;4951872;28;22484;-87
2022/03/27 04:59:37;;;;;;;14.87;9.80;;;;;;;;;;4951795;28;20198;-85
2022/03/27 05:02:04;;;;;;;14.70;9.70;;;;;;;;;;4962035;28;20201;-86
2022/03/27 05:04:30;;;;;;;11.90;10.17;;;;;;;;;;4970597;28;20241;-85
2022/03/27 05:06:56;;;;;;;13.50;11.13;;;;;;;;;;4969007;28;22461;-86
2022/03/27 05:09:22;;;;;;;13.27;10.00;;;;;;;;;;4970759;28;20222;-87
2022/03/27 05:11:48;;;;;;;11.77;10.17;;;;;;;;;;4960179;28;20194;-86
2022/03/27 05:14:14;;;;;;;14.63;10.50;;;;;;;;;;4963282;28;20186;-87
2022/03/27 05:16:40;;;;;;;13.83;10.67;;;;;;;;;;4970353;28;20277;-86
2022/03/27 05:19:06;;;;;;;12.63;10.43;;;;;;;;;;4958655;28;20210;-86
2022/03/27 05:21:32;;;;;;;14.73;10.70;;;;;;;;;;4970827;28;20205;-86
2022/03/27 05:23:58;;;;;;;13.07;11.07;;;;;;;;;;4977497;28;20209;-84
2022/03/27 05:26:25;;;;;;;12.10;10.80;;;;;;;;;;4959265;28;20197;-84
2022/03/27 05:28:51;;;;;;;16.50;11.57;;;;;;;;;;4960843;28;21245;-86
2022/03/27 05:31:17;;;;;;;14.83;12.13;;;;;;;;;;4972532;28;20187;-87
2022/03/27 05:33:43;;;;;;;14.47;11.63;;;;;;;;;;4984785;28;20194;-86
2022/03/27 05:36:09;;;;;;;15.33;12.00;;;;;;;;;;4974316;28;20408;-86
2022/03/27 05:38:37;;;;;;;19.20;12.70;;;;;;;;;;4979561;28;20190;-85
2022/03/27 05:41:03;;;;;;;13.60;11.80;;;;;;;;;;4964504;28;21101;-87
2022/03/27 05:43:29;;;;;;;14.67;12.07;;;;;;;;;;4975140;28;20189;-87
2022/03/27 05:45:55;;;;;;;15.43;13.23;;;;;;;;;;4978958;28;20217;-87
2022/03/27 05:48:21;;;;;;;15.90;13.00;;;;;;;;;;4963949;28;21055;-87
2022/03/27 05:50:47;;;;;;;15.53;12.57;;;;;;;;;;4976702;28;20225;-86
2022/03/27 05:53:13;;;;;;;17.63;14.40;;;;;;;;;;4977590;28;21114;-86
2022/03/27 05:55:39;;;;;;;15.87;13.20;;;;;;;;;;4977003;28;20195;-87
2022/03/27 05:58:05;;;;;;;19.23;13.53;;;;;;;;;;4972678;28;20204;-86
2022/03/27 06:00:31;;;;;;;17.67;13.47;;;;;;;;;;4976507;28;20198;-85
2022/03/27 06:02:57;;;;;;;16.67;13.53;;;;;;;;;;4975502;28;20237;-84
2022/03/27 06:05:23;;;;;;;18.73;13.73;;;;;;;;;;4966082;28;20210;-86
2022/03/27 06:07:50;;;;;;;19.33;13.93;;;;;;;;;;4958389;28;20221;-85
2022/03/27 06:10:16;;;;;;;19.50;14.40;;;;;;;;;;4968997;28;20229;-86
2022/03/27 06:12:45;;;;;;;19.13;14.23;;;;;;;;;;4973797;28;20190;-87
2022/03/27 06:15:12;;;;;;;19.43;14.43;;;;;;;;;;4970703;28;20194;-85
2022/03/27 06:17:39;;;;;;;17.13;13.87;;;;;;;;;;4975785;28;20230;-85
2022/03/27 06:20:06;;;;;;;19.37;15.43;;;;;;;;;;4974772;28;20313;-86
2022/03/27 06:22:32;;;;;;;19.73;15.03;;;;;;;;;;4960148;28;20187;-86
2022/03/27 06:24:58;;;;;;;22.13;15.33;;;;;;;;;;4959835;28;20205;-85
2022/03/27 06:27:24;;;;;;;22.63;16.23;;;;;;;;;;4972839;28;20202;-84
2022/03/27 06:29:50;;;;;;;20.17;15.83;;;;;;;;;;4968540;28;20209;-85
2022/03/27 06:32:15;;;;;;;19.80;15.23;;;;;;;;;;4969407;28;20187;-86
2022/03/27 06:34:41;;;;;;;19.43;15.80;;;;;;;;;;4973056;28;20318;-85
2022/03/27 06:37:08;;;;;;;20.93;16.33;;;;;;;;;;4974669;28;20198;-87
2022/03/27 06:39:34;;;;;;;19.63;16.83;;;;;;;;;;4954773;28;20186;-84
2022/03/27 06:42:00;;;;;;;19.37;15.77;;;;;;;;;;4951871;28;20921;-86
2022/03/27 06:44:26;;;;;;;21.40;17.10;;;;;;;;;;4969460;28;20291;-87
2022/03/27 06:46:52;;;;;;;22.23;17.03;;;;;;;;;;4968623;28;20206;-86
2022/03/27 06:49:18;;;;;;;21.53;17.67;;;;;;;;;;4968147;28;20270;-86
2022/03/27 06:51:44;;;;;;;26.63;18.40;;;;;;;;;;4954417;28;20186;-87
2022/03/27 06:54:09;;;;;;;24.27;17.90;;;;;;;;;;4952370;28;20698;-85
2022/03/27 06:56:40;;;;;;;24.50;18.20;;;;;;;;;;4969472;28;20197;-85
2022/03/27 06:59:06;;;;;;;26.30;19.33;;;;;;;;;;4963685;28;20643;-85
2022/03/27 07:04:17;;;;;;;33.07;22.47;;;;;;;;;;4976501;28;20297;-86
2022/03/27 07:06:43;;;;;;;31.73;22.83;;;;;;;;;;4976945;28;20282;-86
2022/03/27 07:09:10;;;;;;;33.60;24.47;;;;;;;;;;4957369;28;20245;-84
2022/03/27 07:11:36;;;;;;;35.57;26.00;;;;;;;;;;4979087;28;21130;-84
2022/03/27 07:14:02;;;;;;;35.30;26.33;;;;;;;;;;4980813;28;20193;-84
2022/03/27 07:16:30;;;;;;;40.03;27.37;;;;;;;;;;4979191;28;20210;-86
2022/03/27 07:18:56;;;;;;;36.40;26.50;;;;;;;;;;4973809;28;20189;-85
2022/03/27 07:21:22;;;;;;;38.00;27.00;;;;;;;;;;4975209;28;21307;-83
2022/03/27 07:23:48;;;;;;;37.80;27.47;;;;;;;;;;4968005;28;20193;-86
2022/03/27 07:26:14;;;;;;;36.50;26.23;;;;;;;;;;4971161;28;20201;-84
2022/03/27 07:28:39;;;;;;;34.37;25.97;;;;;;;;;;4952898;28;20895;-86
2022/03/27 07:31:05;;;;;;;32.00;23.63;;;;;;;;;;4964665;28;20281;-84
2022/03/27 07:33:33;;;;;;;36.07;24.27;;;;;;;;;;4964320;28;20269;-84
2022/03/27 07:35:59;;;;;;;28.20;23.13;;;;;;;;;;4967822;28;20187;-86
2022/03/27 07:38:26;;;;;;;31.50;22.60;;;;;;;;;;4964183;28;20289;-84
2022/03/27 07:40:52;;;;;;;28.87;22.30;;;;;;;;;;4967155;28;20209;-84
2022/03/27 07:43:18;;;;;;;27.73;21.80;;;;;;;;;;4976029;28;20213;-85
2022/03/27 07:45:44;;;;;;;27.50;20.67;;;;;;;;;;4960081;28;20735;-87
2022/03/27 07:48:10;;;;;;;27.50;21.43;;;;;;;;;;4962907;28;20226;-85
2022/03/27 07:50:36;;;;;;;27.70;20.97;;;;;;;;;;4996084;28;20224;-84
2022/03/27 07:53:03;;;;;;;25.23;20.27;;;;;;;;;;4951944;28;20305;-87
2022/03/27 07:55:29;;;;;;;23.90;18.60;;;;;;;;;;4975357;28;20198;-87
2022/03/27 07:57:55;;;;;;;22.87;19.07;;;;;;;;;;4957227;28;20203;-82
2022/03/27 08:00:21;;;;;;;21.53;18.43;;;;;;;;;;4983183;28;20194;-83
2022/03/27 08:02:48;;;;;;;22.10;19.07;;;;;;;;;;4960090;28;20195;-86
2022/03/27 08:05:16;;;;;;;20.13;16.73;;;;;;;;;;4975754;28;20260;-79
2022/03/27 08:07:45;;;;;;;19.00;13.60;;;;;;;;;;4973913;28;20534;-81
2022/03/27 08:10:13;;;;;;;14.03;12.53;;;;;;;;;;4957261;28;20210;-80
2022/03/27 08:12:39;;;;;;;16.03;12.00;;;;;;;;;;4971365;28;20182;-78
2022/03/27 08:15:05;;;;;;;16.47;11.83;;;;;;;;;;4963655;28;20209;-80
2022/03/27 08:17:31;;;;;;;13.23;11.83;;;;;;;;;;4980940;28;20217;-81
2022/03/27 08:19:57;;;;;;;13.77;11.93;;;;;;;;;;4982480;28;20640;-79
2022/03/27 08:22:24;;;;;;;15.00;11.70;;;;;;;;;;4957940;28;20245;-81
2022/03/27 08:24:50;;;;;;;15.27;12.03;;;;;;;;;;4960970;28;20786;-81
2022/03/27 08:27:16;;;;;;;17.17;12.00;;;;;;;;;;4952053;28;20264;-81
2022/03/27 08:29:42;;;;;;;13.33;11.93;;;;;;;;;;4970046;28;20207;-81
2022/03/27 08:32:09;;;;;;;14.47;12.13;;;;;;;;;;4952883;28;20538;-81
2022/03/27 08:34:35;;;;;;;16.50;12.90;;;;;;;;;;4967721;28;20197;-81
2022/03/27 08:37:02;;;;;;;14.03;12.07;;;;;;;;;;4962203;28;20213;-81
2022/03/27 08:39:28;;;;;;;17.43;13.47;;;;;;;;;;4963436;28;20266;-82
2022/03/27 08:41:54;;;;;;;16.97;15.27;;;;;;;;;;4964799;28;20209;-82
2022/03/27 08:44:22;;;;;;;18.67;16.30;;;;;;;;;;4955684;28;21419;-81
2022/03/27 08:46:48;;;;;;;18.00;15.83;;;;;;;;;;4950066;28;20193;-81
2022/03/27 08:49:17;;;;;;;18.50;15.97;;;;;;;;;;4958788;28;20221;-82
2022/03/27 08:51:46;;;;;;;17.63;15.83;;;;;;;;;;4960350;28;20367;-82
2022/03/27 08:54:14;;;;;;;18.37;14.93;;;;;;;;;;4976226;28;20228;-82
2022/03/27 08:56:40;;;;;;;16.40;14.67;;;;;;;;;;4960961;28;20279;-82
2022/03/27 08:59:07;;;;;;;16.17;14.47;;;;;;;;;;4979320;28;20281;-80
2022/03/27 09:01:33;;;;;;;15.60;14.00;;;;;;;;;;4957925;28;20722;-81
2022/03/27 09:03:59;;;;;;;15.75;14.05;;;;;;;;;;4946079;28;20269;-81
2022/03/27 09:06:25;;;;;;;15.45;13.93;;;;;;;;;;4938251;28;20318;-81
2022/03/27 09:08:51;;;;;;;15.60;13.98;;;;;;;;;;4953273;28;20194;-79
2022/03/27 09:11:17;;;;;;;15.98;14.48;;;;;;;;;;4966816;28;20195;-80
2022/03/27 09:13:47;;;;;;;15.82;14.23;;;;;;;;;;4960829;28;20190;-80
2022/03/27 09:16:13;;;;;;;15.63;14.15;;;;;;;;;;4966866;28;20921;-80
2022/03/27 09:18:43;;;;;;;17.63;15.98;;;;;;;;;;4958009;28;20204;-81
2022/03/27 09:21:12;;;;;;;19.20;17.02;;;;;;;;;;4967032;28;20193;-85
2022/03/27 09:23:38;;;;;;;20.20;17.85;;;;;;;;;;4972935;28;20194;-86
2022/03/27 09:26:04;;;;;;;20.05;18.13;;;;;;;;;;4971727;28;20198;-88
2022/03/27 09:28:37;;;;;;;23.08;20.33;;;;;;;;;;4971638;28;20614;-86
2022/03/27 09:31:06;;;;;;;21.42;19.33;;;;;;;;;;4977785;28;20218;-88
2022/03/27 09:33:36;;;;;;;20.98;18.85;;;;;;;;;;4977956;28;20179;-88
2022/03/27 09:36:18;;;;;;;21.38;19.15;;;;;;;;;;4964171;28;20185;-83
2022/03/27 09:39:01;;;;;;;20.48;18.00;;;;;;;;;;4973236;28;20186;-87
2022/03/27 09:41:32;;;;;;;23.00;19.52;;;;;;;;;;4948396;28;20652;-89
2022/03/27 09:44:01;;;;;;;24.08;20.38;;;;;;;;;;4973566;28;20194;-88
2022/03/27 09:46:27;;;;;;;21.30;19.10;;;;;;;;;;4966942;28;20257;-86
2022/03/27 09:49:00;;;;;;;19.95;18.02;;;;;;;;;;4976821;28;20205;-89
2022/03/27 09:51:29;;;;;;;23.52;21.00;;;;;;;;;;4974464;28;20186;-89
2022/03/27 09:54:00;;;;;;;21.75;19.40;;;;;;;;;;4980235;28;20194;-87
2022/03/27 09:56:29;;;;;;;21.52;19.42;;;;;;;;;;4955631;28;20197;-87
2022/03/27 09:58:57;;;;;;;22.48;20.27;;;;;;;;;;4968498;28;20997;-86
2022/03/27 10:01:24;;;;;;;21.30;19.17;;;;;;;;;;4972726;28;20203;-89
2022/03/27 10:04:13;;;;;;;21.63;19.48;;;;;;;;;;4982967;23;21074;-64
2022/03/27 10:06:40;;;;;;;20.85;18.65;;;;;;;;;;4986116;28;20258;-63
2022/03/27 10:09:07;;;;;;;19.95;17.92;;;;;;;;;;4990758;28;20682;-63
2022/03/27 10:11:34;;;;;;;18.75;16.85;;;;;;;;;;4992943;28;20190;-60
2022/03/27 10:14:00;;;;;;;19.55;17.45;;;;;;;;;;4990445;28;20684;-61
2022/03/27 10:16:30;;;;;;;19.98;17.95;;;;;;;;;;4989544;28;20201;-60
2022/03/27 10:18:58;;;;;;;21.40;18.73;;;;;;;;;;4989669;28;20212;-60
2022/03/27 10:21:25;;;;;;;21.08;18.60;;;;;;;;;;4993078;28;20644;-62
2022/03/27 10:23:53;;;;;;;21.27;19.08;;;;;;;;;;4991804;28;20187;-60
2022/03/27 10:26:19;;;;;;;20.48;18.42;;;;;;;;;;4992593;28;20204;-62
2022/03/27 10:28:46;;;;;;;22.70;19.58;;;;;;;;;;4970719;28;20670;-60
2022/03/27 10:31:11;;;;;;;22.58;19.92;;;;;;;;;;4984376;28;21702;-61
2022/03/27 10:33:37;;;;;;;21.35;19.15;;;;;;;;;;4983676;28;20606;-62
2022/03/27 10:36:12;;;;;;;22.05;19.65;;;;;;;;;;4992699;28;20190;-61
2022/03/27 10:38:45;;;;;;;25.90;20.80;;;;;;;;;;4988811;28;20189;-62
2022/03/27 10:41:15;;;;;;;23.13;19.83;;;;;;;;;;4987412;28;20198;-62
2022/03/27 10:43:49;;;;;;;25.27;21.00;;;;;;;;;;4978949;28;20671;-61
2022/03/27 10:46:16;;;;;;;25.35;21.30;;;;;;;;;;4977344;28;20295;-61
2022/03/27 10:48:44;;;;;;;24.95;20.55;;;;;;;;;;4993245;28;20240;-61
2022/03/27 10:51:10;;;;;;;23.10;20.40;;;;;;;;;;4991573;28;20211;-61
2022/03/27 10:53:36;;;;;;;23.67;20.17;;;;;;;;;;4986883;28;20201;-62
2022/03/27 10:56:03;;;;;;;22.45;19.27;;;;;;;;;;4980813;28;20229;-63
2022/03/27 10:58:39;;;;;;;23.23;19.80;;;;;;;;;;4982851;28;20178;-62
2022/03/27 11:01:08;;;;;;;24.40;19.95;;;;;;;;;;4981570;28;20303;-63
2022/03/27 11:03:44;;;;;;;26.80;19.17;;;;;;;;;;4982471;28;20276;-63
2022/03/27 11:06:22;;;;;;;21.65;19.15;;;;;;;;;;4984937;28;20304;-62
2022/03/27 11:08:48;;;;;;;23.67;19.65;;;;;;;;;;4978778;28;20213;-61
2022/03/27 11:11:33;;;;;;;21.55;18.00;;;;;;;;;;4984592;28;20240;-63
2022/03/27 11:13:59;;;;;;;22.45;17.42;;;;;;;;;;4984028;28;20205;-62
2022/03/27 11:16:25;;;;;;;24.38;17.98;;;;;;;;;;4980178;28;20622;-59
2022/03/27 11:18:51;;;;;;;20.67;16.52;;;;;;;;;;4984924;28;20655;-61
2022/03/27 11:21:29;;;;;;;26.17;16.08;;;;;;;;;;4982081;28;20212;-59
2022/03/27 11:23:55;;;;;;;16.13;13.20;;;;;;;;;;4989514;28;20197;-60
2022/03/27 11:26:21;;;;;;;17.15;12.70;;;;;;;;;;4990388;28;20189;-61
2022/03/27 11:28:51;;;;;;;16.45;11.60;;;;;;;;;;4986119;28;20823;-60
2022/03/27 11:31:17;;;;;;;13.68;11.27;;;;;;;;;;4986571;28;20271;-60
2022/03/27 11:33:45;;;;;;;12.82;10.02;;;;;;;;;;4990765;28;20199;-60
2022/03/27 11:36:11;;;;;;;12.63;9.75;;;;;;;;;;4984389;28;20304;-60
2022/03/27 11:38:47;;;;;;;11.77;9.27;;;;;;;;;;4986071;28;20194;-60
2022/03/27 11:41:22;;;;;;;14.75;9.57;;;;;;;;;;4989048;28;20539;-60
2022/03/27 11:43:50;;;;;;;13.00;8.93;;;;;;;;;;4984113;28;22072;-60
2022/03/27 11:46:26;;;;;;;10.23;8.57;;;;;;;;;;4983655;28;20942;-60
2022/03/27 11:48:55;;;;;;;10.25;8.50;;;;;;;;;;4979456;28;20202;-60
2022/03/27 11:51:21;;;;;;;10.27;8.30;;;;;;;;;;4986399;28;20759;-59
2022/03/27 11:53:47;;;;;;;10.38;8.18;;;;;;;;;;4986323;28;20179;-60
2022/03/27 11:56:13;;;;;;;9.38;8.18;;;;;;;;;;4984391;28;20194;-60
2022/03/27 11:58:39;;;;;;;11.02;8.55;;;;;;;;;;4983908;28;20178;-59
2022/03/27 12:01:06;;;;;;;11.52;8.38;;;;;;;;;;4983006;28;20204;-61
2022/03/27 12:03:32;;;;;;;9.40;7.75;;;;;;;;;;4981776;28;20245;-60
2022/03/27 12:06:05;;;;;;;9.75;7.40;;;;;;;;;;4983240;28;20198;-60
2022/03/27 12:08:32;;;;;;;9.75;7.50;;;;;;;;;;4981369;28;20204;-60
2022/03/27 12:11:04;;;;;;;9.35;7.47;;;;;;;;;;4988066;28;20288;-61
2022/03/27 12:13:30;;;;;;;8.73;7.63;;;;;;;;;;4985688;28;20182;-60
2022/03/27 12:15:56;;;;;;;9.15;7.20;;;;;;;;;;4984128;28;20205;-60
2022/03/27 12:18:38;;;;;;;9.27;7.03;;;;;;;;;;4984941;28;20178;-60
2022/03/27 12:21:05;;;;;;;7.90;7.10;;;;;;;;;;4971797;28;20194;-65
2022/03/27 12:23:32;;;;;;;16.75;14.82;;;;;;;;;;4966587;28;20200;-59
2022/03/27 12:26:04;;;;;;;15.27;13.77;;;;;;;;;;4953977;28;21116;-59
2022/03/27 12:31:19;;;;;;;16.77;14.98;;;;;;;;;;4951812;28;20224;-59
2022/03/27 12:33:45;;;;;;;15.05;13.55;;;;;;;;;;4953583;28;20970;-57
2022/03/27 12:36:13;;;;;;;14.68;13.18;;;;;;;;;;4953339;28;20320;-57
2022/03/27 12:38:39;;;;;;;16.33;13.77;;;;;;;;;;4963935;28;20192;-57
2022/03/27 12:41:06;;;;;;;15.80;14.25;;;;;;;;;;4952676;28;20286;-60
2022/03/27 12:43:32;;;;;;;15.95;13.98;;;;;;;;;;4948742;28;20286;-58
2022/03/27 12:45:58;;;;;;;14.65;12.90;;;;;;;;;;4951657;28;20221;-57
2022/03/27 12:48:27;;;;;;;14.10;12.75;;;;;;;;;;4954985;28;20194;-58
2022/03/27 12:50:53;;;;;;;14.40;12.90;;;;;;;;;;4957037;28;20217;-58
2022/03/27 12:53:22;;;;;;;14.73;13.25;;;;;;;;;;4957430;28;20208;-57
2022/03/27 12:55:51;;;;;;;14.73;13.18;;;;;;;;;;4956757;28;20253;-57
2022/03/27 12:58:21;;;;;;;14.15;12.75;;;;;;;;;;4956637;28;21455;-57
2022/03/27 13:01:03;;;;;;;14.70;12.95;;;;;;;;;;4963123;28;20280;-58
2022/03/27 13:03:29;;;;;;;13.95;12.60;;;;;;;;;;4945023;28;20248;-56
2022/03/27 13:05:57;;;;;;;13.90;12.43;;;;;;;;;;4955825;28;20718;-56
2022/03/27 13:08:26;;;;;;;12.85;11.55;;;;;;;;;;4956740;28;20200;-57
2022/03/27 13:10:56;;;;;;;12.82;11.07;;;;;;;;;;4955886;28;20208;-58
2022/03/27 13:13:30;;;;;;;12.10;10.90;;;;;;;;;;4948223;28;20201;-58
2022/03/27 13:15:57;;;;;;;12.23;11.05;;;;;;;;;;4946731;28;20662;-58
2022/03/27 13:18:30;;;;;;;18.48;11.93;;;;;;;;;;4955074;28;20705;-58
2022/03/27 13:20:56;;;;;;;17.08;11.57;;;;;;;;;;4944230;28;20201;-56
2022/03/27 13:23:22;;;;;;;14.30;11.50;;;;;;;;;;4947503;28;20201;-57
2022/03/27 13:25:49;;;;;;;12.63;11.32;;;;;;;;;;4952672;28;20197;-58
2022/03/27 13:28:14;;;;;;;14.75;11.23;;;;;;;;;;4947093;28;20197;-59
2022/03/27 13:30:41;;;;;;;12.10;10.90;;;;;;;;;;4955305;28;20695;-58
2022/03/27 13:33:07;;;;;;;12.23;11.02;;;;;;;;;;4947249;28;20182;-58
2022/03/27 13:35:33;;;;;;;12.23;10.90;;;;;;;;;;4950731;28;20926;-58
2022/03/27 13:37:59;;;;;;;11.75;10.25;;;;;;;;;;4952504;28;20189;-58
2022/03/27 13:43:10;;;;;;;13.18;10.25;;;;;;;;;;4952187;28;20200;-59
2022/03/27 13:45:38;;;;;;;13.57;11.73;;;;;;;;;;4959288;28;20191;-58
2022/03/27 13:48:05;;;;;;;12.80;11.43;;;;;;;;;;4961728;28;20453;-58
2022/03/27 13:50:31;;;;;;;12.07;10.88;;;;;;;;;;4954547;28;20209;-58
2022/03/27 13:52:58;;;;;;;11.95;10.70;;;;;;;;;;4959848;28;20205;-58
2022/03/27 13:55:24;;;;;;;12.60;11.30;;;;;;;;;;4959519;28;20199;-58
2022/03/27 13:57:50;;;;;;;14.07;11.60;;;;;;;;;;4952573;28;20366;-58
2022/03/27 14:00:16;;;;;;;13.68;11.50;;;;;;;;;;4961532;28;20204;-58
2022/03/27 14:02:42;;;;;;;15.40;12.38;;;;;;;;;;4964214;28;20253;-58
2022/03/27 14:05:08;;;;;;;13.68;11.50;;;;;;;;;;4959506;28;20304;-58
2022/03/27 14:07:34;;;;;;;12.80;11.50;;;;;;;;;;4962443;28;20192;-58
2022/03/27 14:10:00;;;;;;;13.13;11.73;;;;;;;;;;4965773;28;20214;-58
2022/03/27 14:12:26;;;;;;;13.95;11.98;;;;;;;;;;4961923;28;20216;-58
2022/03/27 14:14:52;;;;;;;12.60;11.27;;;;;;;;;;4961794;28;20608;-58
2022/03/27 14:17:18;;;;;;;12.65;11.35;;;;;;;;;;4971248;28;20240;-58
2022/03/27 14:19:44;;;;;;;13.32;11.93;;;;;;;;;;4970212;28;20194;-58
2022/03/27 14:22:10;;;;;;;12.83;11.37;;;;;;;;;;4970062;28;20189;-58
2022/03/27 14:24:36;;;;;;;16.00;11.37;;;;;;;;;;4976324;28;20202;-58
2022/03/27 14:27:02;;;;;;;15.27;11.13;;;;;;;;;;4964702;28;20202;-58
2022/03/27 14:29:28;;;;;;;14.43;10.83;;;;;;;;;;4964449;28;20844;-58